createdAt,value
2023-04-25T00:01:36.939Z,8.87
2023-04-25T00:04:04.146Z,9.20
2023-04-25T00:06:32.695Z,8.95
2023-04-25T00:08:59.106Z,9.20
2023-04-25T00:11:25.507Z,9.12
2023-04-25T00:13:51.881Z,8.72
2023-04-25T00:16:18.322Z,9.03
2023-04-25T00:18:44.825Z,8.84
2023-04-25T00:21:11.587Z,8.90
2023-04-25T00:23:38.027Z,8.96
2023-04-25T00:26:04.414Z,8.90
2023-04-25T00:28:30.825Z,9.03
2023-04-25T00:30:57.193Z,9.15
2023-04-25T00:33:23.569Z,8.92
2023-04-25T00:35:49.952Z,9.00
2023-04-25T00:38:16.642Z,8.88
2023-04-25T00:40:44.631Z,8.99
2023-04-25T00:43:10.996Z,8.96
2023-04-25T00:45:39.567Z,9.07
2023-04-25T00:48:06.478Z,8.92
2023-04-25T00:50:36.911Z,8.97
2023-04-25T00:53:04.208Z,8.91
2023-04-25T00:55:32.387Z,8.87
2023-04-25T00:57:59.007Z,8.91
2023-04-25T01:02:53.360Z,8.76
2023-04-25T01:05:19.884Z,8.74
2023-04-25T01:07:46.522Z,8.63
2023-04-25T01:10:12.885Z,8.90
2023-04-25T01:12:39.313Z,8.83
2023-04-25T01:15:06.166Z,8.95
2023-04-25T01:17:33.089Z,8.87
2023-04-25T01:19:59.690Z,8.85
2023-04-25T01:22:26.770Z,8.69
2023-04-25T01:24:53.244Z,8.85
2023-04-25T01:27:19.812Z,8.77
2023-04-25T01:29:46.733Z,8.75
2023-04-25T01:32:14.806Z,8.77
2023-04-25T01:34:41.267Z,8.78
2023-04-25T01:37:07.636Z,8.66
2023-04-25T01:39:34.210Z,8.76
2023-04-25T01:42:01.064Z,8.85
2023-04-25T01:44:27.560Z,8.87
2023-04-25T01:46:54.581Z,8.80
2023-04-25T01:49:21.239Z,8.55
2023-04-25T01:51:47.598Z,8.77
2023-04-25T01:54:14.627Z,8.75
2023-04-25T01:56:41.215Z,8.74
2023-04-25T01:59:07.628Z,8.92
2023-04-25T02:01:34.168Z,8.90
2023-04-25T02:04:00.845Z,9.02
2023-04-25T02:06:27.502Z,8.89
2023-04-25T02:08:53.875Z,8.75
2023-04-25T02:11:20.332Z,8.87
2023-04-25T02:13:46.794Z,8.54
2023-04-25T02:16:14.162Z,8.65
2023-04-25T02:18:40.622Z,8.76
2023-04-25T02:21:07.227Z,8.57
2023-04-25T02:23:33.675Z,8.50
2023-04-25T02:26:00.180Z,8.70
2023-04-25T02:28:29.233Z,8.70
2023-04-25T02:30:55.786Z,8.62
2023-04-25T02:33:22.367Z,8.70
2023-04-25T02:35:48.929Z,8.71
2023-04-25T02:38:15.687Z,8.55
2023-04-25T02:40:42.103Z,8.66
2023-04-25T02:43:08.690Z,8.59
2023-04-25T02:45:36.011Z,8.46
2023-04-25T02:48:03.846Z,8.82
2023-04-25T02:50:30.288Z,8.80
2023-04-25T02:52:56.747Z,8.60
2023-04-25T02:55:23.977Z,8.45
2023-04-25T02:57:51.365Z,8.54
2023-04-25T03:00:17.778Z,8.61
2023-04-25T03:02:44.344Z,8.40
2023-04-25T03:05:10.820Z,8.66
2023-04-25T03:07:37.188Z,8.43
2023-04-25T03:10:03.785Z,8.54
2023-04-25T03:12:30.146Z,8.43
2023-04-25T03:14:56.515Z,8.32
2023-04-25T03:17:22.938Z,8.39
2023-04-25T03:19:49.360Z,8.36
2023-04-25T03:22:16.132Z,8.66
2023-04-25T03:24:42.513Z,8.55
2023-04-25T03:27:09.101Z,8.41
2023-04-25T03:29:35.502Z,8.41
2023-04-25T03:32:01.919Z,8.30
2023-04-25T03:34:29.020Z,8.30
2023-04-25T03:36:55.390Z,8.54
2023-04-25T03:39:21.765Z,8.47
2023-04-25T03:41:48.166Z,8.35
2023-04-25T03:44:14.871Z,8.43
2023-04-25T03:46:41.471Z,8.50
2023-04-25T03:49:07.940Z,8.55
2023-04-25T03:51:34.288Z,8.44
2023-04-25T03:54:00.654Z,8.32
2023-04-25T03:56:27.047Z,8.22
2023-04-25T03:58:53.586Z,8.55
2023-04-25T04:01:20.383Z,8.58
2023-04-25T04:03:46.903Z,8.32
2023-04-25T04:06:14.672Z,8.48
2023-04-25T04:08:41.065Z,8.38
2023-04-25T04:11:07.447Z,8.36
2023-04-25T04:13:33.835Z,8.47
2023-04-25T04:16:00.341Z,8.61
2023-04-25T04:18:26.837Z,8.54
2023-04-25T04:20:53.200Z,8.39
2023-04-25T04:23:20.945Z,8.22
2023-04-25T04:25:47.905Z,8.41
2023-04-25T04:28:14.358Z,8.40
2023-04-25T04:30:42.108Z,8.51
2023-04-25T04:33:08.656Z,8.51
2023-04-25T04:35:35.057Z,8.32
2023-04-25T04:38:01.458Z,8.58
2023-04-25T04:40:27.916Z,8.74
2023-04-25T04:42:57.368Z,8.64
2023-04-25T04:45:24.648Z,8.53
2023-04-25T04:47:51.270Z,8.72
2023-04-25T04:50:17.727Z,8.68
2023-04-25T04:52:44.101Z,8.51
2023-04-25T04:55:10.651Z,8.78
2023-04-25T04:57:37.888Z,8.47
2023-04-25T05:00:11.720Z,8.52
2023-04-25T05:02:39.611Z,8.55
2023-04-25T05:05:06.902Z,8.59
2023-04-25T05:07:33.246Z,8.67
2023-04-25T05:09:59.610Z,8.89
2023-04-25T05:12:26.079Z,8.83
2023-04-25T05:14:52.428Z,8.52
2023-04-25T05:17:18.784Z,8.44
2023-04-25T05:19:45.122Z,8.42
2023-04-25T05:22:11.542Z,8.46
2023-04-25T05:24:37.876Z,8.57
2023-04-25T05:27:04.304Z,8.45
2023-04-25T05:29:30.664Z,8.55
2023-04-25T05:31:57.053Z,8.88
2023-04-25T05:34:23.471Z,8.54
2023-04-25T05:36:49.843Z,8.73
2023-04-25T05:39:17.824Z,8.67
2023-04-25T05:41:44.599Z,8.72
2023-04-25T05:44:11.450Z,8.69
2023-04-25T05:46:37.927Z,8.61
2023-04-25T05:49:04.315Z,8.80
2023-04-25T05:51:30.710Z,8.59
2023-04-25T05:53:57.069Z,8.80
2023-04-25T05:56:23.467Z,8.55
2023-04-25T05:58:49.859Z,8.82
2023-04-25T06:01:16.861Z,8.89
2023-04-25T06:03:46.037Z,9.33
2023-04-25T06:06:12.944Z,8.91
2023-04-25T06:08:39.473Z,8.91
2023-04-25T06:11:05.902Z,8.90
2023-04-25T06:13:32.407Z,8.92
2023-04-25T06:15:58.832Z,8.63
2023-04-25T06:18:25.262Z,8.75
2023-04-25T06:20:51.724Z,8.66
2023-04-25T06:23:18.096Z,8.75
2023-04-25T06:25:44.717Z,8.68
2023-04-25T06:28:11.090Z,8.53
2023-04-25T06:30:37.471Z,8.57
2023-04-25T06:33:04.015Z,8.58
2023-04-25T06:35:30.685Z,8.36
2023-04-25T06:37:57.075Z,8.71
2023-04-25T06:40:23.607Z,8.66
2023-04-25T06:42:50.062Z,8.56
2023-04-25T06:45:16.505Z,8.81
2023-04-25T06:47:42.867Z,8.59
2023-04-25T06:50:09.618Z,8.87
2023-04-25T06:52:35.966Z,8.63
2023-04-25T06:55:02.550Z,9.08
2023-04-25T06:57:28.965Z,8.59
2023-04-25T06:59:55.351Z,9.04
2023-04-25T07:02:22.751Z,9.12
2023-04-25T07:04:49.397Z,8.96
2023-04-25T07:07:16.140Z,9.19
2023-04-25T07:09:42.484Z,8.94
2023-04-25T07:12:08.841Z,8.44
2023-04-25T07:14:36.194Z,8.39
2023-04-25T07:17:02.675Z,8.44
2023-04-25T07:19:30.732Z,8.45
2023-04-25T07:21:57.134Z,8.71
2023-04-25T07:24:23.741Z,8.41
2023-04-25T07:26:50.217Z,8.58
2023-04-25T07:29:17.630Z,8.26
2023-04-25T07:31:44.010Z,8.43
2023-04-25T07:34:10.972Z,8.51
2023-04-25T07:36:37.342Z,8.89
2023-04-25T07:39:04.162Z,8.49
2023-04-25T07:41:30.527Z,8.92
2023-04-25T07:43:56.899Z,9.11
2023-04-25T07:46:23.285Z,8.87
2023-04-25T07:48:49.850Z,9.57
2023-04-25T07:51:16.562Z,8.87
2023-04-25T07:53:43.255Z,8.58
2023-04-25T07:56:10.142Z,9.24
2023-04-25T07:58:36.627Z,9.26
2023-04-25T08:01:03.172Z,9.64
2023-04-25T08:03:29.782Z,9.32
2023-04-25T08:05:56.631Z,9.05
2023-04-25T08:08:23.110Z,9.12
2023-04-25T08:10:49.588Z,8.76
2023-04-25T08:13:15.961Z,9.42
2023-04-25T08:15:42.395Z,9.84
2023-04-25T08:18:09.030Z,9.27
2023-04-25T08:20:35.579Z,9.19
2023-04-25T08:23:01.950Z,10.07
2023-04-25T08:25:28.404Z,9.12
2023-04-25T08:27:54.783Z,9.61
2023-04-25T08:30:22.176Z,9.35
2023-04-25T08:32:48.810Z,9.21
2023-04-25T08:35:15.219Z,9.81
2023-04-25T08:37:41.621Z,9.68
2023-04-25T08:40:13.032Z,9.25
2023-04-25T08:42:41.814Z,9.69
2023-04-25T08:45:09.431Z,9.94
2023-04-25T08:47:38.268Z,9.52
2023-04-25T08:50:06.502Z,9.19
2023-04-25T08:52:38.967Z,9.24
2023-04-25T08:55:07.885Z,9.11
2023-04-25T08:57:34.549Z,9.60
2023-04-25T09:00:02.116Z,9.68
2023-04-25T09:02:28.712Z,9.44
2023-04-25T09:04:55.947Z,10.00
2023-04-25T09:07:22.573Z,9.51
2023-04-25T09:09:48.999Z,9.63
2023-04-25T09:12:15.618Z,10.24
2023-04-25T09:14:43.387Z,10.04
2023-04-25T09:17:09.846Z,10.58
2023-04-25T09:19:41.781Z,9.97
2023-04-25T09:22:09.113Z,10.34
2023-04-25T09:24:37.608Z,10.17
2023-04-25T09:27:09.478Z,10.93
2023-04-25T09:29:38.656Z,10.79
2023-04-25T09:32:14.413Z,10.23
2023-04-25T09:34:45.036Z,10.34
2023-04-25T09:37:12.853Z,10.51
2023-04-25T09:39:39.627Z,10.91
2023-04-25T09:42:06.561Z,10.54
2023-04-25T09:44:33.012Z,10.76
2023-04-25T09:47:00.171Z,10.83
2023-04-25T09:49:28.581Z,10.25
2023-04-25T09:51:59.509Z,10.20
2023-04-25T09:54:26.828Z,10.21
2023-04-25T09:56:54.655Z,10.06
2023-04-25T09:59:22.830Z,10.57
2023-04-25T10:01:51.489Z,10.95
2023-04-25T10:04:25.525Z,10.71
2023-04-25T10:06:54.402Z,10.79
2023-04-25T10:09:22.165Z,10.68
2023-04-25T10:11:52.037Z,10.92
2023-04-25T10:14:19.517Z,11.22
2023-04-25T10:16:46.652Z,10.38
2023-04-25T10:19:14.207Z,10.92
2023-04-25T10:21:49.371Z,11.04
2023-04-25T10:24:16.387Z,10.91
2023-04-25T10:26:43.109Z,10.64
2023-04-25T10:29:10.491Z,10.85
2023-04-25T10:31:46.420Z,11.14
2023-04-25T10:34:12.883Z,11.38
2023-04-25T10:36:39.380Z,10.96
2023-04-25T10:39:10.271Z,10.91
2023-04-25T10:42:09.296Z,10.98
2023-04-25T10:44:38.406Z,10.69
2023-04-25T10:47:07.694Z,10.57
2023-04-25T10:49:43.738Z,10.92
2023-04-25T10:52:30.675Z,11.06
2023-04-25T10:54:58.643Z,11.35
2023-04-25T10:57:32.605Z,11.13
2023-04-25T11:00:07.512Z,10.97
2023-04-25T11:02:38.143Z,11.02
2023-04-25T11:05:04.695Z,10.54
2023-04-25T11:08:07.779Z,10.59
2023-04-25T11:10:37.496Z,10.16
2023-04-25T11:13:04.636Z,10.25
2023-04-25T11:15:31.093Z,9.89
2023-04-25T11:17:57.771Z,9.93
2023-04-25T11:20:26.938Z,9.51
2023-04-25T11:22:53.427Z,10.15
2023-04-25T11:25:21.175Z,10.05
2023-04-25T11:27:52.233Z,9.92
2023-04-25T11:30:19.378Z,10.16
2023-04-25T11:32:46.498Z,10.63
2023-04-25T11:35:13.842Z,10.77
2023-04-25T11:37:41.450Z,11.19
2023-04-25T11:40:09.920Z,11.07
2023-04-25T11:42:44.065Z,9.92
2023-04-25T11:45:11.557Z,10.26
2023-04-25T11:47:38.501Z,10.79
2023-04-25T11:50:07.006Z,9.98
2023-04-25T11:52:38.048Z,10.70
2023-04-25T11:55:18.931Z,10.90
2023-04-25T11:57:47.837Z,10.61
2023-04-25T12:00:18.906Z,11.59
2023-04-25T12:02:48.359Z,10.45
2023-04-25T12:05:31.879Z,10.48
2023-04-25T12:08:11.035Z,10.55
2023-04-25T12:10:40.607Z,10.56
2023-04-25T12:13:24.995Z,9.72
2023-04-25T12:15:51.986Z,10.44
2023-04-25T12:18:24.188Z,10.49
2023-04-25T12:20:50.782Z,10.84
2023-04-25T12:23:17.137Z,10.85
2023-04-25T12:25:45.708Z,11.79
2023-04-25T12:28:20.669Z,11.42
2023-04-25T12:31:01.605Z,11.00
2023-04-25T12:33:31.199Z,10.63
2023-04-25T12:35:58.757Z,11.34
2023-04-25T12:38:30.972Z,10.91
2023-04-25T12:40:58.601Z,10.66
2023-04-25T12:43:25.569Z,10.16
2023-04-25T12:45:53.429Z,10.29
2023-04-25T12:48:21.112Z,10.61
2023-04-25T12:50:51.662Z,10.24
2023-04-25T12:53:22.696Z,10.26
2023-04-25T12:55:49.432Z,10.90
2023-04-25T12:58:17.088Z,10.47
2023-04-25T13:00:44.025Z,11.27
2023-04-25T13:03:12.093Z,11.17
2023-04-25T13:05:39.271Z,11.47
2023-04-25T13:08:05.802Z,11.08
2023-04-25T13:10:32.383Z,13.58
2023-04-25T13:12:58.756Z,11.72
2023-04-25T13:15:33.595Z,12.34
2023-04-25T13:18:00.144Z,12.29
2023-04-25T13:20:26.611Z,11.27
2023-04-25T13:22:52.983Z,11.04
2023-04-25T13:25:19.783Z,11.53
2023-04-25T13:27:46.298Z,10.77
2023-04-25T13:30:13.206Z,10.54
2023-04-25T13:32:40.767Z,11.08
2023-04-25T13:35:10.898Z,10.79
2023-04-25T13:37:38.136Z,11.68
2023-04-25T13:40:07.356Z,11.61
2023-04-25T13:42:33.733Z,11.61
2023-04-25T13:45:00.099Z,11.47
2023-04-25T13:47:27.485Z,11.29
2023-04-25T13:49:54.291Z,11.90
2023-04-25T13:52:20.696Z,11.17
2023-04-25T13:54:47.546Z,11.79
2023-04-25T13:57:14.128Z,11.66
2023-04-25T13:59:41.668Z,11.17
2023-04-25T14:02:08.396Z,10.71
2023-04-25T14:04:34.769Z,10.64
2023-04-25T14:07:01.692Z,10.66
2023-04-25T14:09:28.305Z,10.26
2023-04-25T14:11:55.068Z,9.95
2023-04-25T14:14:22.173Z,10.58
2023-04-25T14:16:49.486Z,10.86
2023-04-25T14:19:16.413Z,10.57
2023-04-25T14:21:43.578Z,10.64
2023-04-25T14:24:11.869Z,10.89
2023-04-25T14:26:38.843Z,10.24
2023-04-25T14:29:08.399Z,10.40
2023-04-25T14:31:35.388Z,10.69
2023-04-25T14:34:03.322Z,11.22
2023-04-25T14:36:29.958Z,11.86
2023-04-25T14:38:56.324Z,12.05
2023-04-25T14:41:24.034Z,12.15
2023-04-25T14:43:50.810Z,10.25
2023-04-25T14:46:17.588Z,10.39
2023-04-25T14:48:44.165Z,10.19
2023-04-25T14:51:10.617Z,10.03
2023-04-25T14:53:37.086Z,10.14
2023-04-25T14:56:03.859Z,9.79
2023-04-25T14:58:30.214Z,9.97
2023-04-25T15:00:56.682Z,10.04
2023-04-25T15:03:23.980Z,9.68
2023-04-25T15:05:50.510Z,9.71
2023-04-25T15:08:16.887Z,10.33
2023-04-25T15:10:43.307Z,10.78
2023-04-25T15:13:11.428Z,10.56
2023-04-25T15:15:37.797Z,9.91
2023-04-25T15:18:04.369Z,10.03
2023-04-25T15:20:31.039Z,10.03
2023-04-25T15:22:57.968Z,10.59
2023-04-25T15:25:24.563Z,11.22
2023-04-25T15:27:52.651Z,11.71
2023-04-25T15:30:20.477Z,11.66
2023-04-25T15:32:47.824Z,11.54
2023-04-25T15:35:15.834Z,10.40
2023-04-25T15:37:42.237Z,11.17
2023-04-25T15:40:12.096Z,11.99
2023-04-25T15:42:39.936Z,12.18
2023-04-25T15:45:08.287Z,11.30
2023-04-25T15:47:36.096Z,10.82
2023-04-25T15:50:03.852Z,10.95
2023-04-25T15:52:39.612Z,10.85
2023-04-25T15:55:06.440Z,10.55
2023-04-25T15:57:34.003Z,10.47
2023-04-25T16:00:00.397Z,10.55
2023-04-25T16:02:26.923Z,10.14
2023-04-25T16:04:53.732Z,10.16
2023-04-25T16:07:20.223Z,10.31
2023-04-25T16:09:46.860Z,9.97
2023-04-25T16:12:13.762Z,10.20
2023-04-25T16:14:40.505Z,9.50
2023-04-25T16:17:06.870Z,9.68
2023-04-25T16:19:33.322Z,9.76
2023-04-25T16:21:59.726Z,9.83
2023-04-25T16:24:26.076Z,9.68
2023-04-25T16:26:52.438Z,9.85
2023-04-25T16:29:18.816Z,9.87
2023-04-25T16:31:47.111Z,9.53
2023-04-25T16:34:15.208Z,9.17
2023-04-25T16:36:41.721Z,9.44
2023-04-25T16:39:08.654Z,9.49
2023-04-25T16:41:35.590Z,10.23
2023-04-25T16:44:01.976Z,9.77
2023-04-25T16:46:28.433Z,9.82
2023-04-25T16:48:54.884Z,9.86
2023-04-25T16:51:21.239Z,11.64
2023-04-25T16:53:48.475Z,11.79
2023-04-25T16:56:14.884Z,12.41
2023-04-25T16:58:41.338Z,12.99
2023-04-25T17:01:08.101Z,14.76
2023-04-25T17:03:35.670Z,12.40
2023-04-25T17:06:02.234Z,10.47
2023-04-25T17:08:29.351Z,10.42
2023-04-25T17:10:55.882Z,10.61
2023-04-25T17:13:22.255Z,13.09
2023-04-25T17:15:57.554Z,12.84
2023-04-25T17:18:24.615Z,12.37
2023-04-25T17:20:51.188Z,11.66
2023-04-25T17:23:18.795Z,10.13
2023-04-25T17:25:45.170Z,10.49
2023-04-25T17:28:12.947Z,9.74
2023-04-25T17:30:40.240Z,9.57
2023-04-25T17:33:07.166Z,10.18
2023-04-25T17:35:40.467Z,9.82
2023-04-25T17:38:06.935Z,9.77
2023-04-25T17:40:33.352Z,9.53
2023-04-25T17:42:59.900Z,9.39
2023-04-25T17:45:26.340Z,9.41
2023-04-25T17:47:52.758Z,9.45
2023-04-25T17:50:19.482Z,9.06
2023-04-25T17:52:48.116Z,9.22
2023-04-25T17:55:14.509Z,9.11
2023-04-25T17:57:40.904Z,9.14
2023-04-25T18:00:09.105Z,9.06
2023-04-25T18:02:36.610Z,9.19
2023-04-25T18:05:09.839Z,9.13
2023-04-25T18:07:36.866Z,8.89
2023-04-25T18:10:09.020Z,9.12
2023-04-25T18:12:35.852Z,9.01
2023-04-25T18:15:06.722Z,9.23
2023-04-25T18:17:34.595Z,9.05
2023-04-25T18:20:01.842Z,8.91
2023-04-25T18:22:28.769Z,8.82
2023-04-25T18:24:55.292Z,8.95
2023-04-25T18:27:21.843Z,8.53
2023-04-25T18:29:48.282Z,8.45
2023-04-25T18:32:14.806Z,8.45
2023-04-25T18:34:43.737Z,8.37
2023-04-25T18:37:11.786Z,8.32
2023-04-25T18:39:38.177Z,8.15
2023-04-25T18:42:06.992Z,8.35
2023-04-25T18:44:36.505Z,8.26
2023-04-25T18:47:03.010Z,8.32
2023-04-25T18:49:29.463Z,8.27
2023-04-25T18:51:57.342Z,8.54
2023-04-25T18:54:23.736Z,8.35
2023-04-25T18:56:50.102Z,8.55
2023-04-25T18:59:17.944Z,8.46
2023-04-25T19:01:44.620Z,8.39
2023-04-25T19:04:11.493Z,8.58
2023-04-25T19:06:38.027Z,8.47
2023-04-25T19:09:04.455Z,8.60
2023-04-25T19:11:30.917Z,8.45
2023-04-25T19:13:57.348Z,8.32
2023-04-25T19:16:25.966Z,8.39
2023-04-25T19:18:54.823Z,8.42
2023-04-25T19:21:21.428Z,8.21
2023-04-25T19:23:47.818Z,8.29
2023-04-25T19:26:14.187Z,8.21
2023-04-25T19:28:43.188Z,8.13
2023-04-25T19:31:10.032Z,8.18
2023-04-25T19:33:36.501Z,8.14
2023-04-25T19:36:03.101Z,8.18
2023-04-25T19:38:29.504Z,7.99
2023-04-25T19:40:56.327Z,7.79
2023-04-25T19:43:22.682Z,7.97
2023-04-25T19:45:49.110Z,7.77
2023-04-25T19:48:15.509Z,7.89
2023-04-25T19:50:41.896Z,7.93
2023-04-25T19:53:09.428Z,7.76
2023-04-25T19:55:35.793Z,7.72
2023-04-25T19:58:03.290Z,7.78
2023-04-25T20:00:29.750Z,7.80
2023-04-25T20:02:56.500Z,7.61
2023-04-25T20:05:23.501Z,7.58
2023-04-25T20:07:50.404Z,7.52
2023-04-25T20:10:17.376Z,7.51
2023-04-25T20:12:44.397Z,7.63
2023-04-25T20:15:11.721Z,7.52
2023-04-25T20:17:42.424Z,7.51
2023-04-25T20:20:10.751Z,7.53
2023-04-25T20:22:38.751Z,7.60
2023-04-25T20:25:06.940Z,7.57
2023-04-25T20:27:33.435Z,7.36
2023-04-25T20:30:03.449Z,7.40
2023-04-25T20:32:32.101Z,7.26
2023-04-25T20:34:58.499Z,7.31
2023-04-25T20:37:24.839Z,7.14
2023-04-25T20:39:51.445Z,7.29
2023-04-25T20:42:17.867Z,7.03
2023-04-25T20:44:44.237Z,7.06
2023-04-25T20:47:10.600Z,7.16
2023-04-25T20:49:36.996Z,7.15
2023-04-25T20:52:03.430Z,7.04
2023-04-25T20:54:30.973Z,7.23
2023-04-25T20:56:57.631Z,7.02
2023-04-25T20:59:25.367Z,7.07
2023-04-25T21:01:54.085Z,7.14
2023-04-25T21:04:20.981Z,6.84
2023-04-25T21:06:47.457Z,6.97
2023-04-25T21:09:14.142Z,7.01
2023-04-25T21:11:41.005Z,7.12
2023-04-25T21:14:07.518Z,7.03
2023-04-25T21:16:35.395Z,7.00
2023-04-25T21:19:02.310Z,6.93
2023-04-25T21:21:28.679Z,6.80
2023-04-25T21:23:55.513Z,6.77
2023-04-25T21:26:22.122Z,6.82
2023-04-25T21:28:48.563Z,6.63
2023-04-25T21:31:15.342Z,6.72
2023-04-25T21:33:41.715Z,6.49
2023-04-25T21:36:08.245Z,6.64
2023-04-25T21:38:34.766Z,6.49
2023-04-25T21:41:01.492Z,6.54
2023-04-25T21:43:28.680Z,6.55
2023-04-25T21:46:15.239Z,6.55
2023-04-25T21:48:41.616Z,6.53
2023-04-25T21:51:08.011Z,6.35
2023-04-25T21:53:34.414Z,6.43
2023-04-25T21:56:00.931Z,6.28
2023-04-25T21:58:27.353Z,6.26
2023-04-25T22:00:53.740Z,6.24
2023-04-25T22:03:20.516Z,6.22
2023-04-25T22:05:48.059Z,6.33
2023-04-25T22:08:14.484Z,6.24
2023-04-25T22:10:41.942Z,6.23
2023-04-25T22:13:08.348Z,6.25
2023-04-25T22:15:35.455Z,6.20
2023-04-25T22:18:05.447Z,6.09
2023-04-25T22:20:32.010Z,6.16
2023-04-25T22:22:58.578Z,6.06
2023-04-25T22:25:25.240Z,5.97
2023-04-25T22:27:51.713Z,5.93
2023-04-25T22:30:18.406Z,5.85
2023-04-25T22:32:44.787Z,5.89
2023-04-25T22:35:12.007Z,5.84
2023-04-25T22:37:38.453Z,5.94
2023-04-25T22:40:07.145Z,5.80
2023-04-25T22:42:40.663Z,5.74
2023-04-25T22:45:08.146Z,5.77
2023-04-25T22:47:38.869Z,5.81
2023-04-25T22:50:07.986Z,5.70
2023-04-25T22:52:34.764Z,5.88
2023-04-25T22:55:04.404Z,5.90
2023-04-25T22:57:31.306Z,5.80
2023-04-25T22:59:57.813Z,5.75
2023-04-25T23:02:27.998Z,5.65
2023-04-25T23:04:54.984Z,5.48
2023-04-25T23:07:21.488Z,5.49
2023-04-25T23:09:47.890Z,5.55
2023-04-25T23:12:17.798Z,5.29
2023-04-25T23:14:44.202Z,5.21
2023-04-25T23:17:11.530Z,5.47
2023-04-25T23:19:38.206Z,5.33
2023-04-25T23:22:05.807Z,5.34
2023-04-25T23:24:37.478Z,5.29
2023-04-25T23:27:03.879Z,5.28
2023-04-25T23:29:31.456Z,5.17
2023-04-25T23:31:58.167Z,5.31
2023-04-25T23:34:24.616Z,5.19
2023-04-25T23:36:51.079Z,5.22
2023-04-25T23:39:18.871Z,5.11
2023-04-25T23:41:45.237Z,5.08
2023-04-25T23:44:12.264Z,5.09
2023-04-25T23:46:38.718Z,5.03
2023-04-25T23:49:05.422Z,5.00
2023-04-25T23:51:32.248Z,4.91
2023-04-25T23:53:58.678Z,4.95
2023-04-25T23:56:25.050Z,4.90
2023-04-25T23:58:51.544Z,5.01
